Terminal Aerodrome Forecast
Issued by NWS Jackson, MS

Home | Current Version | Previous Version | Text Only | Print | Product List | Glossary On
Versions: 1 2 3 4 5 6 7 8 9 10 11 12 13 14 15 16 17 18
000
FTUS44 KJAN 041700 RRA
TAFHBG
TAF
KHBG 041743Z 0418/0518 21012KT P6SM VCSH SCT020 BKN040
     FM050000 20011KT 4SM RA BR VCTS SCT020 OVC030CB
     FM050800 31013G18KT 4SM -RA BR OVC007
     FM051400 36020G25KT 5SM -RA BR BKN010 OVC020=

USA.gov is the U.S. government's official web portal to all federal, state and local government web resources and services.